createdAt,value
2023-04-22T00:00:42.414Z,520.00
2023-04-22T00:01:42.423Z,521.00
2023-04-22T00:02:42.594Z,522.00
2023-04-22T00:03:42.674Z,524.00
2023-04-22T00:04:42.643Z,524.00
2023-04-22T00:05:42.634Z,524.00
2023-04-22T00:06:42.559Z,526.00
2023-04-22T00:07:42.592Z,525.00
2023-04-22T00:08:42.569Z,524.00
2023-04-22T00:09:42.604Z,520.00
2023-04-22T00:10:42.649Z,523.00
2023-04-22T00:11:42.652Z,524.00
2023-04-22T00:12:42.679Z,524.00
2023-04-22T00:13:42.689Z,525.00
2023-04-22T00:14:42.720Z,524.00
2023-04-22T00:15:42.768Z,524.00
2023-04-22T00:16:42.878Z,521.00
2023-04-22T00:17:42.848Z,521.00
2023-04-22T00:18:42.801Z,522.00
2023-04-22T00:19:42.825Z,521.00
2023-04-22T00:20:42.867Z,523.00
2023-04-22T00:21:42.878Z,524.00
2023-04-22T00:22:42.874Z,525.00
2023-04-22T00:23:42.921Z,525.00
2023-04-22T00:24:42.919Z,523.00
2023-04-22T00:25:42.935Z,525.00
2023-04-22T00:26:42.969Z,527.00
2023-04-22T00:27:42.997Z,526.00
2023-04-22T00:28:43.010Z,525.00
2023-04-22T00:29:43.050Z,523.00
2023-04-22T00:30:43.045Z,523.00
2023-04-22T00:31:43.148Z,523.00
2023-04-22T00:32:43.189Z,524.00
2023-04-22T00:33:43.133Z,522.00
2023-04-22T00:34:43.148Z,522.00
2023-04-22T00:35:43.185Z,522.00
2023-04-22T00:36:43.174Z,522.00
2023-04-22T00:37:43.213Z,521.00
2023-04-22T00:38:43.232Z,522.00
2023-04-22T00:39:43.450Z,523.00
2023-04-22T00:40:43.279Z,524.00
2023-04-22T00:41:43.289Z,524.00
2023-04-22T00:42:43.350Z,524.00
2023-04-22T00:43:43.398Z,527.00
2023-04-22T00:44:43.345Z,529.00
2023-04-22T00:45:43.368Z,528.00
2023-04-22T00:46:43.511Z,525.00
2023-04-22T00:47:43.452Z,524.00
2023-04-22T00:48:43.414Z,525.00
2023-04-22T00:49:43.419Z,525.00
2023-04-22T00:50:43.471Z,524.00
2023-04-22T00:51:43.466Z,523.00
2023-04-22T00:52:43.491Z,525.00
2023-04-22T00:53:43.507Z,524.00
2023-04-22T00:54:43.577Z,524.00
2023-04-22T00:55:43.565Z,524.00
2023-04-22T00:56:43.615Z,523.00
2023-04-22T00:57:43.601Z,523.00
2023-04-22T00:58:43.633Z,522.00
2023-04-22T00:59:43.611Z,522.00
2023-04-22T01:00:43.655Z,523.00
2023-04-22T01:01:43.648Z,526.00
2023-04-22T01:02:43.762Z,524.00
2023-04-22T01:03:44.019Z,522.00
2023-04-22T01:04:43.702Z,520.00
2023-04-22T01:05:43.753Z,518.00
2023-04-22T01:06:43.743Z,518.00
2023-04-22T01:07:43.756Z,517.00
2023-04-22T01:08:43.779Z,516.00
2023-04-22T01:09:43.793Z,518.00
2023-04-22T01:10:43.830Z,519.00
2023-04-22T01:11:43.845Z,519.00
2023-04-22T01:12:43.853Z,520.00
2023-04-22T01:13:43.869Z,520.00
2023-04-22T01:14:43.897Z,518.00
2023-04-22T01:15:43.899Z,516.00
2023-04-22T01:16:43.969Z,517.00
2023-04-22T01:17:44.019Z,519.00
2023-04-22T01:18:43.972Z,519.00
2023-04-22T01:19:44.191Z,520.00
2023-04-22T01:20:44.010Z,524.00
2023-04-22T01:21:44.007Z,524.00
2023-04-22T01:22:44.050Z,527.00
2023-04-22T01:23:44.061Z,527.00
2023-04-22T01:24:44.064Z,526.00
2023-04-22T01:25:44.079Z,526.00
2023-04-22T01:26:44.136Z,525.00
2023-04-22T01:27:44.145Z,527.00
2023-04-22T01:28:44.154Z,528.00
2023-04-22T01:29:44.148Z,524.00
2023-04-22T01:30:44.176Z,524.00
2023-04-22T01:31:44.276Z,523.00
2023-04-22T01:32:44.225Z,521.00
2023-04-22T01:33:44.238Z,523.00
2023-04-22T01:34:44.257Z,525.00
2023-04-22T01:35:44.276Z,527.00
2023-04-22T01:36:44.291Z,525.00
2023-04-22T01:37:44.305Z,527.00
2023-04-22T01:38:44.326Z,524.00
2023-04-22T01:39:44.335Z,523.00
2023-04-22T01:40:44.384Z,523.00
2023-04-22T01:41:44.374Z,523.00
2023-04-22T01:42:44.395Z,522.00
2023-04-22T01:43:44.412Z,520.00
2023-04-22T01:44:44.432Z,517.00
2023-04-22T01:45:44.498Z,520.00
2023-04-22T01:46:44.530Z,522.00
2023-04-22T01:47:44.547Z,524.00
2023-04-22T01:48:44.507Z,522.00
2023-04-22T01:49:44.529Z,524.00
2023-04-22T01:50:44.576Z,523.00
2023-04-22T01:51:44.577Z,525.00
2023-04-22T01:52:44.600Z,523.00
2023-04-22T01:53:44.642Z,523.00
2023-04-22T01:54:44.627Z,523.00
2023-04-22T01:55:44.646Z,521.00
2023-04-22T01:56:44.657Z,522.00
2023-04-22T01:57:44.682Z,524.00
2023-04-22T01:58:44.705Z,525.00
2023-04-22T01:59:44.701Z,528.00
2023-04-22T02:00:44.770Z,527.00
2023-04-22T02:01:44.814Z,525.00
2023-04-22T02:02:44.849Z,524.00
2023-04-22T02:03:44.842Z,525.00
2023-04-22T02:04:44.822Z,527.00
2023-04-22T02:05:44.868Z,527.00
2023-04-22T02:06:44.842Z,530.00
2023-04-22T02:07:44.845Z,531.00
2023-04-22T02:08:44.880Z,533.00
2023-04-22T02:09:44.880Z,532.00
2023-04-22T02:10:44.927Z,533.00
2023-04-22T02:11:44.944Z,534.00
2023-04-22T02:12:44.967Z,535.00
2023-04-22T02:13:44.991Z,533.00
2023-04-22T02:14:44.989Z,534.00
2023-04-22T02:15:45.009Z,535.00
2023-04-22T02:16:45.033Z,535.00
2023-04-22T02:17:45.055Z,535.00
2023-04-22T02:18:45.060Z,534.00
2023-04-22T02:19:45.114Z,537.00
2023-04-22T02:20:45.113Z,537.00
2023-04-22T02:21:45.106Z,538.00
2023-04-22T02:22:45.130Z,536.00
2023-04-22T02:23:45.147Z,534.00
2023-04-22T02:24:45.165Z,533.00
2023-04-22T02:25:45.183Z,531.00
2023-04-22T02:26:45.197Z,529.00
2023-04-22T02:27:45.237Z,527.00
2023-04-22T02:28:45.252Z,527.00
2023-04-22T02:29:45.267Z,526.00
2023-04-22T02:30:45.274Z,526.00
2023-04-22T02:31:45.318Z,523.00
2023-04-22T02:32:45.327Z,520.00
2023-04-22T02:33:45.337Z,522.00
2023-04-22T02:34:45.373Z,524.00
2023-04-22T02:35:45.394Z,527.00
2023-04-22T02:36:45.375Z,527.00
2023-04-22T02:37:45.416Z,528.00
2023-04-22T02:38:45.400Z,527.00
2023-04-22T02:39:45.435Z,528.00
2023-04-22T02:40:45.477Z,531.00
2023-04-22T02:41:45.478Z,533.00
2023-04-22T02:42:45.500Z,534.00
2023-04-22T02:43:45.520Z,532.00
2023-04-22T02:44:45.539Z,530.00
2023-04-22T02:45:45.552Z,528.00
2023-04-22T02:46:45.619Z,529.00
2023-04-22T02:47:45.652Z,530.00
2023-04-22T02:48:45.629Z,530.00
2023-04-22T02:49:45.610Z,530.00
2023-04-22T02:50:45.648Z,530.00
2023-04-22T02:51:45.647Z,530.00
2023-04-22T02:52:45.657Z,529.00
2023-04-22T02:53:45.711Z,528.00
2023-04-22T02:54:45.727Z,530.00
2023-04-22T02:55:45.733Z,530.00
2023-04-22T02:56:45.775Z,532.00
2023-04-22T02:57:45.785Z,535.00
2023-04-22T02:58:45.787Z,535.00
2023-04-22T02:59:45.807Z,535.00
2023-04-22T03:00:45.898Z,536.00
2023-04-22T03:01:45.873Z,535.00
2023-04-22T03:02:46.055Z,534.00
2023-04-22T03:03:46.098Z,534.00
2023-04-22T03:04:45.965Z,534.00
2023-04-22T03:05:45.972Z,531.00
2023-04-22T03:06:45.946Z,531.00
2023-04-22T03:07:45.962Z,533.00
2023-04-22T03:08:45.990Z,536.00
2023-04-22T03:09:46.016Z,537.00
2023-04-22T03:10:46.037Z,536.00
2023-04-22T03:11:46.074Z,534.00
2023-04-22T03:12:46.066Z,538.00
2023-04-22T03:13:46.098Z,536.00
2023-04-22T03:14:46.099Z,536.00
2023-04-22T03:15:46.149Z,537.00
2023-04-22T03:16:46.208Z,537.00
2023-04-22T03:17:46.189Z,535.00
2023-04-22T03:18:46.170Z,533.00
2023-04-22T03:19:46.199Z,532.00
2023-04-22T03:20:46.221Z,533.00
2023-04-22T03:21:46.230Z,530.00
2023-04-22T03:22:46.245Z,530.00
2023-04-22T03:23:46.270Z,528.00
2023-04-22T03:24:46.322Z,528.00
2023-04-22T03:25:46.323Z,528.00
2023-04-22T03:26:46.341Z,527.00
2023-04-22T03:27:46.344Z,529.00
2023-04-22T03:28:46.359Z,530.00
2023-04-22T03:29:46.375Z,533.00
2023-04-22T03:30:46.396Z,532.00
2023-04-22T03:31:46.513Z,531.00
2023-04-22T03:32:46.514Z,532.00
2023-04-22T03:33:46.511Z,533.00
2023-04-22T03:34:46.479Z,532.00
2023-04-22T03:35:46.482Z,531.00
2023-04-22T03:36:46.521Z,530.00
2023-04-22T03:37:46.534Z,527.00
2023-04-22T03:38:46.543Z,524.00
2023-04-22T03:39:46.570Z,524.00
2023-04-22T03:40:46.662Z,526.00
2023-04-22T03:41:46.604Z,523.00
2023-04-22T03:42:46.611Z,524.00
2023-04-22T03:43:46.637Z,523.00
2023-04-22T03:44:46.667Z,522.00
2023-04-22T03:45:46.685Z,523.00
2023-04-22T03:46:46.697Z,525.00
2023-04-22T03:47:46.788Z,526.00
2023-04-22T03:48:46.720Z,527.00
2023-04-22T03:49:46.759Z,526.00
2023-04-22T03:50:46.761Z,527.00
2023-04-22T03:51:46.848Z,530.00
2023-04-22T03:52:46.790Z,529.00
2023-04-22T03:53:46.866Z,527.00
2023-04-22T03:54:46.830Z,526.00
2023-04-22T03:55:46.875Z,525.00
2023-04-22T03:56:46.888Z,525.00
2023-04-22T03:57:46.933Z,524.00
2023-04-22T03:58:46.917Z,525.00
2023-04-22T03:59:46.969Z,528.00
2023-04-22T04:00:46.940Z,531.00
2023-04-22T04:01:46.960Z,532.00
2023-04-22T04:02:47.119Z,532.00
2023-04-22T04:03:47.185Z,531.00
2023-04-22T04:04:47.432Z,530.00
2023-04-22T04:05:47.092Z,531.00
2023-04-22T04:06:47.103Z,532.00
2023-04-22T04:07:47.142Z,533.00
2023-04-22T04:08:47.104Z,533.00
2023-04-22T04:09:47.131Z,535.00
2023-04-22T04:10:47.144Z,534.00
2023-04-22T04:11:47.176Z,535.00
2023-04-22T04:12:47.195Z,538.00
2023-04-22T04:13:47.230Z,538.00
2023-04-22T04:14:47.237Z,540.00
2023-04-22T04:15:47.284Z,538.00
2023-04-22T04:16:47.283Z,533.00
2023-04-22T04:17:47.289Z,533.00
2023-04-22T04:18:47.309Z,533.00
2023-04-22T04:19:47.334Z,532.00
2023-04-22T04:20:47.369Z,530.00
2023-04-22T04:21:47.364Z,530.00
2023-04-22T04:22:47.388Z,529.00
2023-04-22T04:23:47.420Z,529.00
2023-04-22T04:24:47.436Z,526.00
2023-04-22T04:25:47.452Z,528.00
2023-04-22T04:26:47.466Z,529.00
2023-04-22T04:27:47.500Z,531.00
2023-04-22T04:28:47.526Z,531.00
2023-04-22T04:29:47.534Z,530.00
2023-04-22T04:30:47.546Z,529.00
2023-04-22T04:31:47.642Z,533.00
2023-04-22T04:32:47.619Z,533.00
2023-04-22T04:33:47.621Z,533.00
2023-04-22T04:34:47.631Z,534.00
2023-04-22T04:35:47.650Z,535.00
2023-04-22T04:36:47.652Z,536.00
2023-04-22T04:37:47.675Z,536.00
2023-04-22T04:38:47.750Z,537.00
2023-04-22T04:39:47.717Z,536.00
2023-04-22T04:40:47.761Z,535.00
2023-04-22T04:41:47.754Z,534.00
2023-04-22T04:42:47.789Z,536.00
2023-04-22T04:43:47.794Z,536.00
2023-04-22T04:44:47.814Z,535.00
2023-04-22T04:45:48.900Z,532.00
2023-04-22T04:46:47.914Z,532.00
2023-04-22T04:47:47.939Z,532.00
2023-04-22T04:48:47.903Z,531.00
2023-04-22T04:49:47.920Z,532.00
2023-04-22T04:50:47.933Z,533.00
2023-04-22T04:51:47.955Z,532.00
2023-04-22T04:52:47.959Z,534.00
2023-04-22T04:53:47.977Z,535.00
2023-04-22T04:54:47.995Z,538.00
2023-04-22T04:55:48.043Z,537.00
2023-04-22T04:56:48.060Z,538.00
2023-04-22T04:57:48.075Z,537.00
2023-04-22T04:58:48.114Z,536.00
2023-04-22T04:59:48.093Z,532.00
2023-04-22T05:00:48.178Z,535.00
2023-04-22T05:01:48.225Z,537.00
2023-04-22T05:02:48.270Z,536.00
2023-04-22T05:03:48.324Z,536.00
2023-04-22T05:04:48.378Z,536.00
2023-04-22T05:05:48.238Z,535.00
2023-04-22T05:06:48.255Z,535.00
2023-04-22T05:07:48.291Z,536.00
2023-04-22T05:08:48.316Z,536.00
2023-04-22T05:09:48.309Z,535.00
2023-04-22T05:10:48.427Z,532.00
2023-04-22T05:11:48.902Z,529.00
2023-04-22T05:12:48.357Z,530.00
2023-04-22T05:13:48.412Z,528.00
2023-04-22T05:14:48.378Z,528.00
2023-04-22T05:15:48.397Z,527.00
2023-04-22T05:16:48.501Z,528.00
2023-04-22T05:17:48.547Z,531.00
2023-04-22T05:18:48.440Z,532.00
2023-04-22T05:19:48.429Z,533.00
2023-04-22T05:20:48.458Z,535.00
2023-04-22T05:21:48.449Z,535.00
2023-04-22T05:22:48.439Z,533.00
2023-04-22T05:23:48.462Z,536.00
2023-04-22T05:24:48.457Z,537.00
2023-04-22T05:25:49.173Z,538.00
2023-04-22T05:26:48.406Z,538.00
2023-04-22T05:27:48.398Z,537.00
2023-04-22T05:28:48.396Z,535.00
2023-04-22T05:29:48.422Z,536.00
2023-04-22T05:30:48.450Z,537.00
2023-04-22T05:31:48.472Z,539.00
2023-04-22T05:32:48.558Z,541.00
2023-04-22T05:33:48.499Z,542.00
2023-04-22T05:34:48.556Z,544.00
2023-04-22T05:35:48.631Z,542.00
2023-04-22T05:36:48.694Z,544.00
2023-04-22T05:37:48.761Z,544.00
2023-04-22T05:38:48.833Z,544.00
2023-04-22T05:39:48.886Z,544.00
2023-04-22T05:40:48.934Z,544.00
2023-04-22T05:41:49.022Z,544.00
2023-04-22T05:42:49.051Z,543.00
2023-04-22T05:43:49.126Z,543.00
2023-04-22T05:44:49.179Z,544.00
2023-04-22T05:45:49.274Z,544.00
2023-04-22T05:46:49.317Z,544.00
2023-04-22T05:47:49.451Z,543.00
2023-04-22T05:48:49.426Z,544.00
2023-04-22T05:49:49.513Z,544.00
2023-04-22T05:50:49.530Z,543.00
2023-04-22T05:51:49.594Z,543.00
2023-04-22T05:52:49.640Z,542.00
2023-04-22T05:53:49.730Z,543.00
2023-04-22T05:54:49.770Z,541.00
2023-04-22T05:55:49.826Z,539.00
2023-04-22T05:56:49.898Z,538.00
2023-04-22T05:57:49.955Z,536.00
2023-04-22T05:58:50.024Z,537.00
2023-04-22T05:59:50.078Z,539.00
2023-04-22T06:00:50.135Z,538.00
2023-04-22T06:01:50.194Z,539.00
2023-04-22T06:02:50.432Z,539.00
2023-04-22T06:03:50.487Z,540.00
2023-04-22T06:04:50.671Z,541.00
2023-04-22T06:05:50.566Z,541.00
2023-04-22T06:06:50.485Z,539.00
2023-04-22T06:07:50.544Z,540.00
2023-04-22T06:08:50.611Z,539.00
2023-04-22T06:09:52.051Z,541.00
2023-04-22T06:10:50.682Z,542.00
2023-04-22T06:11:50.655Z,543.00
2023-04-22T06:12:50.648Z,543.00
2023-04-22T06:13:50.656Z,539.00
2023-04-22T06:14:50.647Z,540.00
2023-04-22T06:15:50.787Z,538.00
2023-04-22T06:16:50.640Z,540.00
2023-04-22T06:17:50.690Z,539.00
2023-04-22T06:18:50.624Z,537.00
2023-04-22T06:19:50.614Z,537.00
2023-04-22T06:20:50.666Z,538.00
2023-04-22T06:21:50.611Z,542.00
2023-04-22T06:22:50.603Z,542.00
2023-04-22T06:23:50.610Z,543.00
2023-04-22T06:24:50.568Z,543.00
2023-04-22T06:25:50.588Z,544.00
2023-04-22T06:26:50.555Z,541.00
2023-04-22T06:27:50.560Z,541.00
2023-04-22T06:28:50.550Z,542.00
2023-04-22T06:29:50.566Z,543.00
2023-04-22T06:30:50.612Z,545.00
2023-04-22T06:31:50.629Z,544.00
2023-04-22T06:32:50.679Z,542.00
2023-04-22T06:33:50.644Z,542.00
2023-04-22T06:34:50.685Z,542.00
2023-04-22T06:35:50.736Z,538.00
2023-04-22T06:36:50.741Z,538.00
2023-04-22T06:37:50.780Z,538.00
2023-04-22T06:38:50.806Z,538.00
2023-04-22T06:39:50.844Z,537.00
2023-04-22T06:40:50.873Z,538.00
2023-04-22T06:41:50.893Z,540.00
2023-04-22T06:42:50.916Z,540.00
2023-04-22T06:43:50.958Z,542.00
2023-04-22T06:44:50.986Z,542.00
2023-04-22T06:45:51.049Z,542.00
2023-04-22T06:46:51.163Z,541.00
2023-04-22T06:47:51.081Z,543.00
2023-04-22T06:48:51.076Z,542.00
2023-04-22T06:49:51.099Z,542.00
2023-04-22T06:50:51.144Z,541.00
2023-04-22T06:51:51.121Z,539.00
2023-04-22T06:52:51.169Z,536.00
2023-04-22T06:53:51.174Z,537.00
2023-04-22T06:54:51.167Z,540.00
2023-04-22T06:55:51.217Z,539.00
2023-04-22T06:56:51.201Z,537.00
2023-04-22T06:57:51.210Z,538.00
2023-04-22T06:58:51.246Z,539.00
2023-04-22T06:59:51.247Z,541.00
2023-04-22T07:00:51.303Z,540.00
2023-04-22T07:01:51.285Z,538.00
2023-04-22T07:02:51.329Z,537.00
2023-04-22T07:03:51.352Z,537.00
2023-04-22T07:04:51.284Z,535.00
2023-04-22T07:05:51.292Z,534.00
2023-04-22T07:06:51.278Z,532.00
2023-04-22T07:07:51.315Z,533.00
2023-04-22T07:08:51.286Z,534.00
2023-04-22T07:09:51.270Z,534.00
2023-04-22T07:10:51.291Z,535.00
2023-04-22T07:11:51.293Z,534.00
2023-04-22T07:12:51.293Z,535.00
2023-04-22T07:13:51.298Z,534.00
2023-04-22T07:14:51.312Z,532.00
2023-04-22T07:15:51.376Z,533.00
2023-04-22T07:16:51.489Z,534.00
2023-04-22T07:17:51.407Z,532.00
2023-04-22T07:18:51.421Z,534.00
2023-04-22T07:19:51.445Z,532.00
2023-04-22T07:20:51.499Z,531.00
2023-04-22T07:21:51.559Z,534.00
2023-04-22T07:22:51.598Z,539.00
2023-04-22T07:23:51.682Z,537.00
2023-04-22T07:24:51.717Z,539.00
2023-04-22T07:25:51.806Z,537.00
2023-04-22T07:26:51.798Z,537.00
2023-04-22T07:27:51.880Z,538.00
2023-04-22T07:28:51.939Z,538.00
2023-04-22T07:29:51.989Z,538.00
2023-04-22T07:30:52.098Z,539.00
2023-04-22T07:31:52.131Z,537.00
2023-04-22T07:32:52.248Z,536.00
2023-04-22T07:33:52.217Z,536.00
2023-04-22T07:34:52.280Z,536.00
2023-04-22T07:35:52.350Z,537.00
2023-04-22T07:36:52.420Z,537.00
2023-04-22T07:37:52.465Z,535.00
2023-04-22T07:38:52.520Z,533.00
2023-04-22T07:39:52.564Z,531.00
2023-04-22T07:40:52.645Z,532.00
2023-04-22T07:41:52.681Z,530.00
2023-04-22T07:42:52.774Z,529.00
2023-04-22T07:43:52.815Z,528.00
2023-04-22T07:44:52.884Z,527.00
2023-04-22T07:45:52.971Z,526.00
2023-04-22T07:46:52.987Z,528.00
2023-04-22T07:47:53.082Z,529.00
2023-04-22T07:48:53.108Z,528.00
2023-04-22T07:49:53.159Z,523.00
2023-04-22T07:50:53.216Z,523.00
2023-04-22T07:51:53.262Z,523.00
2023-04-22T07:52:53.313Z,524.00
2023-04-22T07:53:53.379Z,526.00
2023-04-22T07:54:53.423Z,530.00
2023-04-22T07:55:53.514Z,530.00
2023-04-22T07:56:53.537Z,530.00
2023-04-22T07:57:53.571Z,531.00
2023-04-22T07:58:53.616Z,531.00
2023-04-22T07:59:53.656Z,531.00
2023-04-22T08:00:53.742Z,530.00
2023-04-22T08:01:53.801Z,530.00
2023-04-22T08:02:53.916Z,530.00
2023-04-22T08:03:54.143Z,529.00
2023-04-22T08:04:53.908Z,529.00
2023-04-22T08:05:53.972Z,526.00
2023-04-22T08:06:53.952Z,525.00
2023-04-22T08:07:54.024Z,525.00
2023-04-22T08:08:54.033Z,523.00
2023-04-22T08:09:54.071Z,520.00
2023-04-22T08:10:54.137Z,521.00
2023-04-22T08:11:54.138Z,521.00
2023-04-22T08:12:54.179Z,522.00
2023-04-22T08:13:54.237Z,522.00
2023-04-22T08:14:54.256Z,522.00
2023-04-22T08:15:54.326Z,520.00
2023-04-22T08:16:54.376Z,519.00
2023-04-22T08:17:54.369Z,518.00
2023-04-22T08:18:54.389Z,518.00
2023-04-22T08:19:54.420Z,517.00
2023-04-22T08:20:54.463Z,519.00
2023-04-22T08:21:54.512Z,520.00
2023-04-22T08:22:54.516Z,517.00
2023-04-22T08:23:54.547Z,515.00
2023-04-22T08:24:54.590Z,515.00
2023-04-22T08:25:54.627Z,517.00
2023-04-22T08:26:54.659Z,517.00
2023-04-22T08:27:54.660Z,517.00
2023-04-22T08:28:54.708Z,517.00
2023-04-22T08:29:54.703Z,516.00
2023-04-22T08:30:54.807Z,519.00
2023-04-22T08:31:54.764Z,522.00
2023-04-22T08:32:54.833Z,524.00
2023-04-22T08:33:54.792Z,527.00
2023-04-22T08:35:01.363Z,527.00
2023-04-22T08:35:55.821Z,529.00
2023-04-22T08:36:54.802Z,527.00
2023-04-22T08:37:54.799Z,527.00
2023-04-22T08:38:54.818Z,528.00
2023-04-22T08:39:54.794Z,527.00
2023-04-22T08:40:54.772Z,528.00
2023-04-22T08:41:54.796Z,526.00
2023-04-22T08:42:54.757Z,527.00
2023-04-22T08:43:54.764Z,529.00
2023-04-22T08:44:54.837Z,531.00
2023-04-22T08:45:54.755Z,531.00
2023-04-22T08:46:54.846Z,530.00
2023-04-22T08:47:54.795Z,530.00
2023-04-22T08:48:54.719Z,527.00
2023-04-22T08:49:54.720Z,527.00
2023-04-22T08:50:54.695Z,527.00
2023-04-22T08:51:54.704Z,527.00
2023-04-22T08:52:54.696Z,527.00
2023-04-22T08:53:54.688Z,528.00
2023-04-22T08:54:54.711Z,527.00
2023-04-22T08:55:54.726Z,527.00
2023-04-22T08:56:54.725Z,523.00
2023-04-22T08:57:54.734Z,522.00
2023-04-22T08:58:54.732Z,523.00
2023-04-22T08:59:54.780Z,523.00
2023-04-22T09:00:54.888Z,525.00
2023-04-22T09:01:54.834Z,525.00
2023-04-22T09:02:54.908Z,525.00
2023-04-22T09:03:54.891Z,526.00
2023-04-22T09:04:54.843Z,524.00
2023-04-22T09:05:54.853Z,526.00
2023-04-22T09:06:54.873Z,524.00
2023-04-22T09:07:54.871Z,525.00
2023-04-22T09:08:54.888Z,522.00
2023-04-22T09:09:54.927Z,521.00
2023-04-22T09:10:54.916Z,522.00
2023-04-22T09:11:54.934Z,522.00
2023-04-22T09:12:54.947Z,522.00
2023-04-22T09:13:54.951Z,520.00
2023-04-22T09:14:54.976Z,520.00
2023-04-22T09:15:55.031Z,519.00
2023-04-22T09:16:55.070Z,522.00
2023-04-22T09:17:55.034Z,525.00
2023-04-22T09:18:55.000Z,524.00
2023-04-22T09:19:55.022Z,524.00
2023-04-22T09:20:55.056Z,524.00
2023-04-22T09:21:55.030Z,525.00
2023-04-22T09:22:55.042Z,525.00
2023-04-22T09:23:55.047Z,524.00
2023-04-22T09:24:55.109Z,524.00
2023-04-22T09:25:55.098Z,522.00
2023-04-22T09:26:55.103Z,520.00
2023-04-22T09:27:55.117Z,521.00
2023-04-22T09:28:55.137Z,519.00
2023-04-22T09:29:55.123Z,519.00
2023-04-22T09:30:55.138Z,518.00
2023-04-22T09:31:55.194Z,518.00
2023-04-22T09:32:55.274Z,514.00
2023-04-22T09:33:55.173Z,513.00
2023-04-22T09:34:55.190Z,511.00
2023-04-22T09:35:55.247Z,512.00
2023-04-22T09:36:55.201Z,513.00
2023-04-22T09:37:55.230Z,512.00
2023-04-22T09:38:55.255Z,514.00
2023-04-22T09:39:55.253Z,512.00
2023-04-22T09:40:55.300Z,510.00
2023-04-22T09:41:55.349Z,511.00
2023-04-22T09:42:55.322Z,511.00
2023-04-22T09:43:55.344Z,512.00
2023-04-22T09:44:55.356Z,512.00
2023-04-22T09:45:55.381Z,510.00
2023-04-22T09:46:55.389Z,511.00
2023-04-22T09:47:55.452Z,512.00
2023-04-22T09:48:55.481Z,512.00
2023-04-22T09:49:55.434Z,514.00
2023-04-22T09:50:55.461Z,512.00
2023-04-22T09:51:55.459Z,513.00
2023-04-22T09:52:55.500Z,514.00
2023-04-22T09:53:55.491Z,514.00
2023-04-22T09:54:55.514Z,514.00
2023-04-22T09:55:55.533Z,516.00
2023-04-22T09:56:55.550Z,514.00
2023-04-22T09:57:55.557Z,514.00
2023-04-22T09:58:55.594Z,512.00
2023-04-22T09:59:55.603Z,511.00
2023-04-22T10:00:55.638Z,510.00
2023-04-22T10:01:55.644Z,509.00
2023-04-22T10:02:55.716Z,510.00
2023-04-22T10:03:55.679Z,511.00
2023-04-22T10:04:55.690Z,510.00
2023-04-22T10:05:55.709Z,511.00
2023-04-22T10:06:55.725Z,510.00
2023-04-22T10:07:55.772Z,510.00
2023-04-22T10:08:55.747Z,511.00
2023-04-22T10:09:55.757Z,511.00
2023-04-22T10:10:55.792Z,510.00
2023-04-22T10:11:55.805Z,509.00
2023-04-22T10:12:55.837Z,507.00
2023-04-22T10:13:55.824Z,510.00
2023-04-22T10:14:55.848Z,513.00
2023-04-22T10:15:55.873Z,516.00
2023-04-22T10:16:55.944Z,516.00
2023-04-22T10:17:55.944Z,515.00
2023-04-22T10:18:55.884Z,515.00
2023-04-22T10:19:55.918Z,513.00
2023-04-22T10:20:55.917Z,514.00
2023-04-22T10:21:55.907Z,515.00
2023-04-22T10:22:55.938Z,515.00
2023-04-22T10:23:55.952Z,515.00
2023-04-22T10:24:55.961Z,516.00
2023-04-22T10:25:56.010Z,515.00
2023-04-22T10:26:57.062Z,517.00
2023-04-22T10:27:56.026Z,517.00
2023-04-22T10:28:55.996Z,516.00
2023-04-22T10:29:55.976Z,516.00
2023-04-22T10:30:56.024Z,517.00
2023-04-22T10:31:56.044Z,518.00
2023-04-22T10:32:56.056Z,517.00
2023-04-22T10:33:56.046Z,517.00
2023-04-22T10:34:56.091Z,515.00
2023-04-22T10:35:56.096Z,513.00
2023-04-22T10:36:56.107Z,513.00
2023-04-22T10:37:56.091Z,515.00
2023-04-22T10:38:56.084Z,514.00
2023-04-22T10:39:56.112Z,516.00
2023-04-22T10:40:56.147Z,515.00
2023-04-22T10:41:56.151Z,514.00
2023-04-22T10:42:56.163Z,514.00
2023-04-22T10:43:56.144Z,513.00
2023-04-22T10:44:56.171Z,511.00
2023-04-22T10:45:56.297Z,510.00
2023-04-22T10:46:56.235Z,512.00
2023-04-22T10:47:56.250Z,513.00
2023-04-22T10:48:56.219Z,515.00
2023-04-22T10:49:56.226Z,518.00
2023-04-22T10:50:56.252Z,518.00
2023-04-22T10:51:56.243Z,516.00
2023-04-22T10:52:56.238Z,517.00
2023-04-22T10:53:56.240Z,518.00
2023-04-22T10:54:56.258Z,518.00
2023-04-22T10:55:56.313Z,519.00
2023-04-22T10:56:58.200Z,523.00
2023-04-22T10:57:56.279Z,522.00
2023-04-22T10:58:56.285Z,522.00
2023-04-22T10:59:56.517Z,521.00
2023-04-22T11:00:56.305Z,520.00
2023-04-22T11:01:56.351Z,518.00
2023-04-22T11:02:56.430Z,519.00
2023-04-22T11:03:56.404Z,518.00
2023-04-22T11:04:56.341Z,519.00
2023-04-22T11:05:56.384Z,519.00
2023-04-22T11:06:56.367Z,518.00
2023-04-22T11:07:56.396Z,519.00
2023-04-22T11:08:56.390Z,518.00
2023-04-22T11:09:56.380Z,518.00
2023-04-22T11:10:56.427Z,517.00
2023-04-22T11:11:56.409Z,515.00
2023-04-22T11:12:56.404Z,513.00
2023-04-22T11:13:56.406Z,512.00
2023-04-22T11:14:56.428Z,512.00
2023-04-22T11:15:56.492Z,511.00
2023-04-22T11:16:56.445Z,512.00
2023-04-22T11:17:56.517Z,509.00
2023-04-22T11:18:56.462Z,509.00
2023-04-22T11:19:56.499Z,509.00
2023-04-22T11:20:56.498Z,509.00
2023-04-22T11:21:56.477Z,511.00
2023-04-22T11:22:56.512Z,512.00
2023-04-22T11:23:56.509Z,511.00
2023-04-22T11:24:56.511Z,512.00
2023-04-22T11:25:56.498Z,512.00
2023-04-22T11:26:56.534Z,513.00
2023-04-22T11:27:56.551Z,514.00
2023-04-22T11:28:56.535Z,512.00
2023-04-22T11:29:56.552Z,515.00
2023-04-22T11:30:56.575Z,514.00
2023-04-22T11:31:56.634Z,513.00
2023-04-22T11:32:56.613Z,513.00
2023-04-22T11:33:56.603Z,511.00
2023-04-22T11:34:56.603Z,511.00
2023-04-22T11:35:56.711Z,512.00
2023-04-22T11:36:56.654Z,511.00
2023-04-22T11:37:56.664Z,510.00
2023-04-22T11:38:56.745Z,510.00
2023-04-22T11:40:17.356Z,513.00
2023-04-22T11:40:57.667Z,513.00
2023-04-22T11:41:56.702Z,512.00
2023-04-22T11:42:56.687Z,512.00
2023-04-22T11:43:56.692Z,513.00
2023-04-22T11:44:56.673Z,511.00
2023-04-22T11:45:56.712Z,515.00
2023-04-22T11:46:56.654Z,512.00
2023-04-22T11:47:56.710Z,511.00
2023-04-22T11:48:56.619Z,511.00
2023-04-22T11:49:56.613Z,513.00
2023-04-22T11:50:56.645Z,513.00
2023-04-22T11:51:56.610Z,511.00
2023-04-22T11:52:56.606Z,511.00
2023-04-22T11:53:56.588Z,511.00
2023-04-22T11:54:56.596Z,507.00
2023-04-22T11:55:56.577Z,506.00
2023-04-22T11:56:56.578Z,507.00
2023-04-22T11:57:56.554Z,508.00
2023-04-22T11:58:56.543Z,506.00
2023-04-22T11:59:56.547Z,508.00
2023-04-22T12:00:56.543Z,510.00
2023-04-22T12:01:56.573Z,511.00
2023-04-22T12:02:56.630Z,513.00
2023-04-22T12:03:56.601Z,515.00
2023-04-22T12:04:56.561Z,513.00
2023-04-22T12:05:56.520Z,513.00
2023-04-22T12:06:56.494Z,513.00
2023-04-22T12:07:56.484Z,510.00
2023-04-22T12:08:56.495Z,510.00
2023-04-22T12:09:56.479Z,510.00
2023-04-22T12:10:56.498Z,510.00
2023-04-22T12:11:56.507Z,511.00
2023-04-22T12:12:56.524Z,512.00
2023-04-22T12:13:56.528Z,514.00
2023-04-22T12:14:56.541Z,515.00
2023-04-22T12:15:56.574Z,514.00
2023-04-22T12:16:56.609Z,515.00
2023-04-22T12:17:56.595Z,514.00
2023-04-22T12:18:56.591Z,515.00
2023-04-22T12:19:56.605Z,513.00
2023-04-22T12:20:56.606Z,511.00
2023-04-22T12:21:56.620Z,512.00
2023-04-22T12:22:56.641Z,514.00
2023-04-22T12:23:56.645Z,513.00
2023-04-22T12:24:56.676Z,510.00
2023-04-22T12:25:56.693Z,509.00
2023-04-22T12:26:56.712Z,509.00
2023-04-22T12:27:56.758Z,509.00
2023-04-22T12:28:56.902Z,507.00